Terminal Aerodrome Forecast
Issued by NWS

Home | Current Version | Previous Version | Text Only | Print | Product List | Glossary On
Versions: 1 2 3 4 5 6 7 8 9 10 11 12 13 14 15
000
FTUS43 KICT 242338
TAFHUT
TAF
KHUT 242338Z 2500/2524 25011KT P6SM BKN100
     FM250330 30012G16KT P6SM VCSH BKN050 OVC100
     FM251500 33028G38KT P6SM SCT035 SCT250
     FM252300 32007KT P6SM SCT100 SCT200=

USA.gov is the U.S. government's official web portal to all federal, state and local government web resources and services.